Time;durP1;ratioP1;P1;durP2;ratioP2;P2;SDS_P1;SDS_P2;PMS_P1;PMS_P2;Temp;Humidity;BMP_temperature;BMP_pressure;BME280_temperature;BME280_humidity;BME280_pressure;Samples;Min_cycle;Max_cycle;Signal;HPM_P1;HPM_P2
2022/01/07 00:01:06;;;;;;;0.00;0.00;;;;;;;7.69;82.25;98847.78;4967052;28;20051;-74
2022/01/07 00:03:32;;;;;;;0.90;0.90;;;;;;;7.58;81.90;98830.16;4968793;28;20031;-73
2022/01/07 00:05:59;;;;;;;0.10;0.10;;;;;;;7.59;82.04;98829.09;4968609;28;20058;-74
2022/01/07 00:08:25;;;;;;;0.00;0.00;;;;;;;7.65;82.12;98852.00;4970319;28;20050;-73
2022/01/07 00:10:50;;;;;;;0.00;0.00;;;;;;;7.64;81.54;98853.88;4971570;28;20038;-74
2022/01/07 00:13:16;;;;;;;0.00;0.00;;;;;;;7.62;81.96;98852.53;4972026;28;20088;-73
2022/01/07 00:15:41;;;;;;;0.00;0.00;;;;;;;7.59;81.80;98853.06;4971932;28;20042;-73
2022/01/07 00:18:08;;;;;;;0.00;0.00;;;;;;;7.65;81.41;98858.16;4971675;28;20339;-76
2022/01/07 00:20:34;;;;;;;0.35;0.35;;;;;;;7.65;81.75;98855.50;4970461;28;20066;-75
2022/01/07 00:23:00;;;;;;;1.08;0.98;;;;;;;7.68;81.33;98867.47;4970051;28;20019;-78
2022/01/07 00:25:25;;;;;;;0.00;0.00;;;;;;;7.66;81.21;98866.91;4970610;28;20080;-79
2022/01/07 00:27:51;;;;;;;0.00;0.00;;;;;;;7.68;81.40;98875.47;4969944;28;20022;-79
2022/01/07 00:30:19;;;;;;;0.00;0.00;;;;;;;7.70;81.27;98881.31;4970616;28;20111;-79
2022/01/07 00:32:45;;;;;;;0.00;0.00;;;;;;;7.72;81.32;98883.72;4970234;28;20033;-79
2022/01/07 00:35:12;;;;;;;0.00;0.00;;;;;;;7.71;80.97;98888.22;4970466;28;20054;-78
2022/01/07 00:37:38;;;;;;;0.00;0.00;;;;;;;7.76;81.53;98895.44;4970365;28;20026;-77
2022/01/07 00:40:07;;;;;;;0.00;0.00;;;;;;;7.74;80.94;98893.03;4969862;28;20035;-78
2022/01/07 00:42:33;;;;;;;0.10;0.10;;;;;;;7.73;80.93;98886.13;4970024;28;20114;-78
2022/01/07 00:44:58;;;;;;;0.00;0.00;;;;;;;7.75;81.01;98888.50;4970027;28;20172;-77
2022/01/07 00:47:24;;;;;;;0.10;0.10;;;;;;;7.73;80.69;98882.66;4970170;28;20027;-76
2022/01/07 00:49:50;;;;;;;0.10;0.10;;;;;;;7.73;80.98;98886.13;4969815;28;20027;-75
2022/01/07 00:52:15;;;;;;;0.00;0.00;;;;;;;7.73;81.03;98888.00;4970239;28;20037;-79
2022/01/07 00:54:41;;;;;;;0.00;0.00;;;;;;;7.68;81.30;98894.09;4970176;28;20039;-78
2022/01/07 00:57:06;;;;;;;0.00;0.00;;;;;;;7.67;81.24;98893.28;4969491;28;20027;-76
2022/01/07 00:59:32;;;;;;;0.00;0.00;;;;;;;7.68;81.18;98892.22;4970107;28;20409;-77
2022/01/07 01:01:58;;;;;;;0.00;0.00;;;;;;;7.65;81.32;98903.41;4969315;28;20054;-77
2022/01/07 01:04:23;;;;;;;0.00;0.00;;;;;;;7.65;81.07;98900.72;4970114;28;20417;-77
2022/01/07 01:06:48;;;;;;;0.00;0.00;;;;;;;7.61;80.72;98904.97;4970760;28;20027;-76
2022/01/07 01:09:15;;;;;;;0.00;0.00;;;;;;;7.59;80.83;98903.63;4971279;28;20371;-77
2022/01/07 01:11:40;;;;;;;0.00;0.00;;;;;;;7.58;81.54;98904.69;4969891;28;20112;-75
2022/01/07 01:14:06;;;;;;;0.00;0.00;;;;;;;7.60;81.70;98902.56;4969419;28;20482;-76
2022/01/07 01:16:32;;;;;;;0.57;0.57;;;;;;;7.61;81.41;98904.97;4970774;28;20039;-76
2022/01/07 01:18:57;;;;;;;0.00;0.00;;;;;;;7.59;81.29;98900.97;4969589;28;20050;-76
2022/01/07 01:21:23;;;;;;;0.20;0.20;;;;;;;7.58;81.34;98902.84;4969724;28;20027;-77
2022/01/07 01:23:50;;;;;;;0.00;0.00;;;;;;;7.60;81.11;98905.22;4970508;28;20049;-77
2022/01/07 01:26:18;;;;;;;0.00;0.00;;;;;;;7.59;81.05;98896.44;4969663;28;20035;-76
2022/01/07 01:28:44;;;;;;;0.00;0.00;;;;;;;7.54;81.43;98899.06;4969352;28;20473;-77
2022/01/07 01:31:10;;;;;;;0.00;0.00;;;;;;;7.36;80.89;98871.03;4969479;28;20079;-79
2022/01/07 01:33:36;;;;;;;0.08;0.08;;;;;;;7.56;82.04;98914.81;4969630;28;20113;-76
2022/01/07 01:36:02;;;;;;;0.00;0.00;;;;;;;7.53;81.53;98919.56;4969313;28;20027;-77
2022/01/07 01:38:30;;;;;;;0.00;0.00;;;;;;;7.53;81.50;98918.75;4969546;28;20035;-77
2022/01/07 01:40:56;;;;;;;0.00;0.00;;;;;;;7.48;81.31;98916.06;4969288;28;20475;-78
2022/01/07 01:43:21;;;;;;;0.00;0.00;;;;;;;7.44;81.33;98915.78;4968948;28;20034;-78
2022/01/07 01:45:47;;;;;;;1.20;1.10;;;;;;;7.35;81.17;98926.13;4969504;28;20030;-79
2022/01/07 01:48:12;;;;;;;0.10;0.10;;;;;;;7.25;81.56;98923.41;4969265;28;20027;-77
2022/01/07 01:50:38;;;;;;;0.00;0.00;;;;;;;7.21;81.65;98932.94;4969161;28;20594;-78
2022/01/07 01:53:03;;;;;;;0.00;0.00;;;;;;;7.16;81.84;98938.25;4970235;28;20543;-76
2022/01/07 01:55:29;;;;;;;0.10;0.10;;;;;;;7.04;81.33;98923.28;4967836;28;20066;-75
2022/01/07 01:57:55;;;;;;;0.00;0.00;;;;;;;6.94;81.34;98915.22;4968672;28;20031;-74
2022/01/07 02:00:24;;;;;;;0.10;0.10;;;;;;;6.91;81.76;98918.41;4970458;28;20062;-75
2022/01/07 02:02:49;;;;;;;0.03;0.03;;;;;;;6.95;81.57;98929.31;4970244;28;20054;-75
2022/01/07 02:05:15;;;;;;;0.00;0.00;;;;;;;6.85;81.42;98927.38;4956798;28;20089;-73
2022/01/07 02:07:41;;;;;;;0.00;0.00;;;;;;;6.80;81.74;98927.31;4951106;28;20043;-75
2022/01/07 02:10:11;;;;;;;0.55;0.55;;;;;;;6.77;81.14;98930.50;4949584;28;20039;-75
2022/01/07 02:12:38;;;;;;;0.00;0.00;;;;;;;6.64;81.45;98934.38;4949684;28;20197;-75
2022/01/07 02:15:04;;;;;;;1.23;0.40;;;;;;;6.62;81.76;98936.50;4949532;28;20031;-75
2022/01/07 02:17:30;;;;;;;0.52;0.52;;;;;;;6.51;81.55;98941.72;4967831;28;20574;-78
2022/01/07 02:19:56;;;;;;;0.25;0.25;;;;;;;6.54;81.59;98941.22;4968537;28;20050;-74
2022/01/07 02:22:25;;;;;;;0.68;0.68;;;;;;;6.55;81.85;98942.81;4968801;28;20030;-74
2022/01/07 02:24:52;;;;;;;0.15;0.15;;;;;;;6.52;81.86;98940.66;4969585;28;20474;-74
2022/01/07 02:27:19;;;;;;;0.63;0.63;;;;;;;6.47;81.88;98930.00;4968444;28;20031;-76
2022/01/07 02:29:46;;;;;;;0.00;0.00;;;;;;;6.51;81.40;98939.06;4968731;28;20038;-76
2022/01/07 02:32:12;;;;;;;0.60;0.60;;;;;;;6.48;81.14;98944.06;4968016;28;20088;-75
2022/01/07 02:34:38;;;;;;;0.43;0.28;;;;;;;6.39;80.66;98939.19;4968731;28;20035;-76
2022/01/07 02:37:03;;;;;;;0.52;0.52;;;;;;;6.43;81.73;98952.78;4967946;28;20030;-76
2022/01/07 02:39:29;;;;;;;0.00;0.00;;;;;;;6.40;81.39;98950.63;4968660;28;20030;-76
2022/01/07 02:41:55;;;;;;;0.50;0.50;;;;;;;6.34;81.11;98946.31;4967967;28;20023;-74
2022/01/07 02:44:20;;;;;;;0.00;0.00;;;;;;;6.42;81.41;98967.13;4969545;28;20031;-74
2022/01/07 02:46:46;;;;;;;0.00;0.00;;;;;;;6.32;81.74;98951.09;4969603;28;20417;-74
2022/01/07 02:49:14;;;;;;;0.00;0.00;;;;;;;6.30;81.18;98956.66;4968324;28;20038;-76
2022/01/07 02:51:39;;;;;;;1.17;1.08;;;;;;;6.34;81.76;98970.22;4967886;28;20043;-76
2022/01/07 02:54:06;;;;;;;1.67;1.55;;;;;;;6.34;81.71;98981.66;4968151;28;20083;-77
2022/01/07 02:56:33;;;;;;;0.08;0.08;;;;;;;6.33;81.96;98982.69;4968431;28;20031;-75
2022/01/07 02:58:58;;;;;;;0.20;0.20;;;;;;;6.33;82.28;98968.63;4969689;28;20482;-75
2022/01/07 03:01:23;;;;;;;0.65;0.65;;;;;;;6.39;82.27;98976.38;4953643;28;20048;-75
2022/01/07 03:03:49;;;;;;;0.00;0.00;;;;;;;6.40;81.63;98978.00;4949128;29;20482;-75
2022/01/07 03:06:15;;;;;;;0.10;0.10;;;;;;;6.47;81.41;98982.31;4948784;29;20063;-75
2022/01/07 03:08:40;;;;;;;0.00;0.00;;;;;;;6.40;80.51;98974.53;4949025;28;20461;-75
2022/01/07 03:11:06;;;;;;;0.17;0.17;;;;;;;6.48;80.44;98992.69;4950919;28;20628;-76
2022/01/07 03:13:31;;;;;;;0.00;0.00;;;;;;;6.47;80.02;98991.09;4968145;28;20023;-74
2022/01/07 03:15:57;;;;;;;0.77;0.77;;;;;;;6.50;79.30;98995.88;4969158;28;20035;-75
2022/01/07 03:18:22;;;;;;;0.22;0.22;;;;;;;6.49;79.80;98996.94;4968118;28;20054;-74
2022/01/07 03:20:48;;;;;;;0.35;0.35;;;;;;;6.50;79.68;98989.78;4969037;28;20059;-74
2022/01/07 03:23:14;;;;;;;0.90;0.90;;;;;;;6.52;79.21;99009.75;4968885;28;20053;-74
2022/01/07 03:25:41;;;;;;;2.83;0.80;;;;;;;6.35;78.76;98963.88;4967658;28;20089;-75
2022/01/07 03:28:08;;;;;;;1.55;1.55;;;;;;;6.54;78.98;99001.50;4969080;28;20049;-75
2022/01/07 03:30:34;;;;;;;0.30;0.30;;;;;;;6.55;78.69;99011.09;4967903;28;20035;-75
2022/01/07 03:33:00;;;;;;;1.05;1.02;;;;;;;6.50;78.36;98995.88;4968617;28;20031;-75
2022/01/07 03:35:25;;;;;;;0.13;0.13;;;;;;;6.33;78.59;98973.94;4967913;28;20035;-76
2022/01/07 03:37:51;;;;;;;0.13;0.13;;;;;;;6.57;77.66;99007.13;4967949;28;20133;-75
2022/01/07 03:40:19;;;;;;;0.05;0.05;;;;;;;6.49;77.83;99004.91;4967616;28;20057;-74
2022/01/07 03:42:45;;;;;;;0.05;0.05;;;;;;;6.57;77.65;99025.72;4968673;28;20200;-77
2022/01/07 03:45:11;;;;;;;0.00;0.00;;;;;;;6.63;77.23;99028.44;4971009;28;20026;-76
2022/01/07 03:47:37;;;;;;;0.45;0.45;;;;;;;6.48;76.80;99005.97;4971014;28;20057;-75
2022/01/07 03:50:07;;;;;;;0.30;0.30;;;;;;;6.56;76.94;99026.78;4972210;28;20481;-76
2022/01/07 03:52:33;;;;;;;2.22;1.00;;;;;;;6.49;76.93;99020.84;4972429;28;20490;-78
2022/01/07 03:54:59;;;;;;;2.60;2.40;;;;;;;6.48;77.08;99029.06;4971579;28;20121;-77
2022/01/07 03:57:24;;;;;;;0.32;0.32;;;;;;;6.46;76.99;99029.34;4971254;28;20113;-74
2022/01/07 03:59:50;;;;;;;0.32;0.32;;;;;;;6.46;77.46;99033.81;4970692;28;20073;-74
2022/01/07 04:02:17;;;;;;;0.10;0.10;;;;;;;6.40;77.23;99014.38;4971958;28;20168;-74
2022/01/07 04:04:43;;;;;;;0.20;0.20;;;;;;;6.40;76.99;99039.09;4971980;28;20038;-76
2022/01/07 04:07:09;;;;;;;1.20;1.15;;;;;;;6.45;76.48;99054.28;4970671;28;20027;-78
2022/01/07 04:09:34;;;;;;;0.75;0.75;;;;;;;6.39;75.94;99039.34;4969820;28;20077;-81
2022/01/07 04:12:00;;;;;;;0.47;0.47;;;;;;;6.44;76.50;99054.53;4970504;28;20490;-81
2022/01/07 04:14:26;;;;;;;1.55;1.13;;;;;;;6.36;75.70;99048.63;4970684;28;20034;-76
2022/01/07 04:16:52;;;;;;;0.43;0.43;;;;;;;6.44;75.44;99062.50;4970720;28;20065;-77
2022/01/07 04:19:17;;;;;;;0.70;0.70;;;;;;;6.40;74.91;99065.66;4970430;28;20062;-76
2022/01/07 04:21:43;;;;;;;0.25;0.25;;;;;;;6.43;74.70;99067.00;4970564;28;20034;-76
2022/01/07 04:24:08;;;;;;;0.15;0.15;;;;;;;6.41;75.26;99077.09;4969795;28;20031;-76
2022/01/07 04:26:34;;;;;;;1.45;1.45;;;;;;;6.39;74.45;99068.56;4970285;28;20030;-75
2022/01/07 04:28:59;;;;;;;0.00;0.00;;;;;;;6.44;74.44;99078.47;4970214;28;20030;-75
2022/01/07 04:31:24;;;;;;;0.75;0.75;;;;;;;6.46;74.40;99084.31;4970117;28;20034;-76
2022/01/07 04:33:50;;;;;;;4.75;1.65;;;;;;;6.47;74.14;99083.25;4971410;28;20478;-76
2022/01/07 04:36:15;;;;;;;0.52;0.52;;;;;;;6.48;73.75;99085.69;4969936;28;20426;-75
2022/01/07 04:38:41;;;;;;;0.00;0.00;;;;;;;6.52;74.00;99086.00;4969918;28;20109;-77
2022/01/07 04:41:06;;;;;;;0.00;0.00;;;;;;;6.56;74.00;99093.19;4970005;28;20030;-75
2022/01/07 04:43:32;;;;;;;0.73;0.73;;;;;;;6.51;73.51;99084.38;4971349;28;20063;-76
2022/01/07 04:45:57;;;;;;;0.00;0.00;;;;;;;6.51;73.30;99076.41;4970788;28;20026;-77
2022/01/07 04:48:23;;;;;;;0.00;0.00;;;;;;;6.54;73.19;99092.66;4970197;28;20038;-78
2022/01/07 04:50:48;;;;;;;0.00;0.00;;;;;;;6.52;73.44;99088.66;4969615;28;20084;-78
2022/01/07 04:53:13;;;;;;;0.00;0.00;;;;;;;6.49;73.55;99089.13;4969157;28;20125;-77
2022/01/07 04:55:39;;;;;;;0.40;0.40;;;;;;;6.51;73.11;99108.28;4970038;28;20083;-77
2022/01/07 04:58:07;;;;;;;0.32;0.32;;;;;;;6.55;73.36;99112.06;4969547;28;20042;-76
2022/01/07 05:00:33;;;;;;;0.57;0.43;;;;;;;6.51;73.11;99108.28;4969232;28;20039;-77
2022/01/07 05:02:58;;;;;;;0.47;0.47;;;;;;;6.52;73.51;99113.34;4969885;28;20126;-80
2022/01/07 05:05:24;;;;;;;0.03;0.03;;;;;;;6.52;73.14;99129.28;4970026;28;20138;-77
2022/01/07 05:07:49;;;;;;;0.00;0.00;;;;;;;6.54;72.77;99124.56;4969702;28;20083;-76
2022/01/07 05:10:15;;;;;;;0.20;0.20;;;;;;;6.51;72.95;99129.56;4969614;28;20031;-76
2022/01/07 05:12:42;;;;;;;0.00;0.00;;;;;;;6.47;72.63;99125.75;4971603;28;20031;-83
2022/01/07 05:15:09;;;;;;;0.43;0.43;;;;;;;6.46;72.87;99132.13;4968728;28;20060;-76
2022/01/07 05:17:34;;;;;;;0.08;0.08;;;;;;;6.38;72.61;99120.09;4969566;28;20023;-75
2022/01/07 05:20:00;;;;;;;2.60;1.17;;;;;;;6.39;73.12;99132.31;4969771;28;20045;-77
2022/01/07 05:22:26;;;;;;;1.13;1.10;;;;;;;6.39;73.57;99140.28;4969124;28;20046;-75
2022/01/07 05:24:51;;;;;;;0.00;0.00;;;;;;;6.47;73.18;99155.81;4970861;28;20505;-78
2022/01/07 05:27:17;;;;;;;0.10;0.10;;;;;;;6.41;73.22;99146.97;4969609;28;20031;-82
2022/01/07 05:29:42;;;;;;;0.22;0.22;;;;;;;6.33;72.86;99139.41;4968625;28;20038;-74
2022/01/07 05:32:08;;;;;;;0.00;0.00;;;;;;;6.36;73.02;99149.56;4968694;28;20039;-74
2022/01/07 05:34:34;;;;;;;0.30;0.30;;;;;;;6.38;72.95;99149.31;4967066;28;20100;-75
2022/01/07 05:37:00;;;;;;;0.00;0.00;;;;;;;6.42;73.70;99150.44;4969268;28;20088;-75
2022/01/07 05:39:25;;;;;;;0.65;0.65;;;;;;;6.38;73.07;99146.66;4969126;28;20031;-75
2022/01/07 05:41:51;;;;;;;0.00;0.00;;;;;;;6.46;72.87;99159.50;4969187;28;20034;-76
2022/01/07 05:44:17;;;;;;;0.15;0.15;;;;;;;6.42;72.71;99150.44;4970046;28;20064;-75
2022/01/07 05:46:42;;;;;;;0.00;0.00;;;;;;;6.50;72.25;99163.28;4969140;28;20490;-76
2022/01/07 05:49:08;;;;;;;0.00;0.00;;;;;;;6.48;72.32;99161.91;4969031;28;20019;-76
2022/01/07 05:51:33;;;;;;;1.42;0.68;;;;;;;6.46;72.34;99154.19;4969995;28;20110;-76
2022/01/07 05:53:59;;;;;;;0.00;0.00;;;;;;;6.48;71.71;99176.03;4970067;28;20033;-76
2022/01/07 05:56:24;;;;;;;0.00;0.00;;;;;;;6.51;72.14;99166.75;4968963;28;20507;-76
2022/01/07 05:58:50;;;;;;;0.17;0.17;;;;;;;6.53;72.01;99168.09;4969079;28;20611;-76
2022/01/07 06:01:15;;;;;;;0.22;0.22;;;;;;;6.53;72.11;99170.75;4968246;28;20101;-76
2022/01/07 06:03:41;;;;;;;0.10;0.10;;;;;;;6.52;72.30;99171.03;4970039;28;20034;-76
2022/01/07 06:06:07;;;;;;;0.08;0.08;;;;;;;6.55;71.64;99183.78;4968030;28;20045;-75
2022/01/07 06:08:33;;;;;;;0.10;0.10;;;;;;;6.50;71.90;99173.09;4968906;28;20069;-75
2022/01/07 06:10:58;;;;;;;0.00;0.00;;;;;;;6.52;72.07;99179.00;4968512;28;20058;-77
2022/01/07 06:13:23;;;;;;;0.00;0.00;;;;;;;6.49;71.62;99169.63;4967982;28;20062;-75
2022/01/07 06:15:49;;;;;;;0.17;0.17;;;;;;;6.56;71.99;99188.84;4968163;28;20604;-75
2022/01/07 06:18:14;;;;;;;0.10;0.10;;;;;;;6.54;71.83;99184.84;4967810;28;20027;-75
2022/01/07 06:20:40;;;;;;;0.00;0.00;;;;;;;6.56;71.97;99188.84;4968032;28;20022;-75
2022/01/07 06:23:05;;;;;;;0.63;0.63;;;;;;;6.52;71.68;99179.78;4967796;28;20031;-75
2022/01/07 06:25:31;;;;;;;2.45;1.65;;;;;;;6.44;72.16;99174.88;4969549;28;20482;-75
2022/01/07 06:27:56;;;;;;;0.32;0.32;;;;;;;6.49;71.86;99185.56;4967664;28;20027;-75
2022/01/07 06:30:22;;;;;;;0.65;0.65;;;;;;;6.49;71.94;99192.75;4967705;28;20038;-75
2022/01/07 06:32:47;;;;;;;0.32;0.32;;;;;;;6.50;71.74;99194.38;4967974;28;20033;-75
2022/01/07 06:35:13;;;;;;;2.10;1.95;;;;;;;6.50;72.07;99197.81;4967764;28;20035;-75
2022/01/07 06:37:39;;;;;;;0.10;0.10;;;;;;;6.48;71.69;99204.41;4967849;28;20026;-75
2022/01/07 06:40:06;;;;;;;0.08;0.08;;;;;;;6.50;72.05;99205.78;4967519;28;20029;-76
2022/01/07 06:42:31;;;;;;;1.58;0.95;;;;;;;6.51;71.86;99207.41;4967681;28;20107;-75
2022/01/07 06:44:58;;;;;;;0.35;0.35;;;;;;;6.53;72.39;99204.50;4967831;28;20489;-75
2022/01/07 06:47:23;;;;;;;1.85;0.63;;;;;;;6.53;71.85;99207.97;4967671;28;20034;-75
2022/01/07 06:49:49;;;;;;;0.10;0.10;;;;;;;6.47;71.63;99200.16;4969131;28;20512;-75
2022/01/07 06:52:15;;;;;;;0.00;0.00;;;;;;;6.52;71.59;99210.88;4967646;28;20122;-76
2022/01/07 06:54:40;;;;;;;0.10;0.10;;;;;;;6.54;72.26;99216.72;4967710;28;20035;-75
2022/01/07 06:57:06;;;;;;;0.70;0.43;;;;;;;6.51;71.61;99217.22;4967417;28;20023;-75
2022/01/07 06:59:31;;;;;;;0.00;0.00;;;;;;;6.55;71.53;99228.97;4968850;28;20592;-75
2022/01/07 07:01:57;;;;;;;0.95;0.95;;;;;;;6.52;71.87;99235.56;4967538;28;20568;-75
2022/01/07 07:04:23;;;;;;;0.30;0.30;;;;;;;6.48;72.39;99234.47;4968475;28;20023;-75
2022/01/07 07:06:49;;;;;;;0.25;0.25;;;;;;;6.43;72.95;99223.75;4967568;28;20077;-75
2022/01/07 07:09:17;;;;;;;0.00;0.00;;;;;;;6.46;73.48;99231.25;4968567;28;20123;-75
2022/01/07 07:11:43;;;;;;;0.43;0.43;;;;;;;6.43;73.78;99234.38;4968416;28;20041;-76
2022/01/07 07:14:09;;;;;;;0.10;0.10;;;;;;;6.40;73.75;99229.56;4967222;28;20281;-75
2022/01/07 07:16:35;;;;;;;0.10;0.10;;;;;;;6.40;74.27;99233.00;4967852;28;20027;-75
2022/01/07 07:19:00;;;;;;;0.00;0.00;;;;;;;6.26;74.29;99210.47;4971048;28;20042;-75
2022/01/07 07:21:25;;;;;;;0.30;0.30;;;;;;;6.19;74.23;99213.31;4972566;28;20393;-75
2022/01/07 07:23:51;;;;;;;0.28;0.28;;;;;;;6.28;74.22;99228.84;4972437;28;20489;-75
2022/01/07 07:26:16;;;;;;;0.00;0.00;;;;;;;6.25;74.71;99230.94;4972504;28;20035;-76
2022/01/07 07:28:42;;;;;;;0.00;0.00;;;;;;;6.31;74.58;99236.31;4972776;28;20058;-76
2022/01/07 07:31:12;;;;;;;0.65;0.65;;;;;;;6.31;74.38;99242.47;4972430;28;20034;-76
2022/01/07 07:36:32;;;;;;;0.30;0.30;;;;;;;6.32;73.92;99240.59;4972285;28;20039;-76
2022/01/07 07:38:57;;;;;;;2.08;1.90;;;;;;;6.37;74.16;99241.47;4972599;28;20031;-76
2022/01/07 07:41:23;;;;;;;0.00;0.00;;;;;;;6.36;74.26;99236.41;4970913;28;20034;-75
2022/01/07 07:43:50;;;;;;;0.30;0.30;;;;;;;6.44;74.24;99240.50;4971102;28;20023;-76
2022/01/07 07:46:16;;;;;;;0.05;0.05;;;;;;;6.39;73.63;99244.69;4972129;28;20030;-76
2022/01/07 07:48:43;;;;;;;0.47;0.47;;;;;;;6.44;73.27;99243.97;4972525;28;20034;-76
2022/01/07 07:51:08;;;;;;;0.00;0.00;;;;;;;6.47;73.26;99243.47;4970788;28;20031;-75
2022/01/07 07:53:34;;;;;;;0.20;0.20;;;;;;;6.46;73.12;99246.38;4970970;28;20029;-75
2022/01/07 07:55:59;;;;;;;0.17;0.17;;;;;;;6.42;73.06;99240.75;4970761;28;20066;-76
2022/01/07 07:58:27;;;;;;;0.10;0.10;;;;;;;6.38;72.80;99242.28;4971701;28;20126;-75
2022/01/07 08:00:53;;;;;;;0.70;0.57;;;;;;;6.37;73.00;99249.47;4970527;28;20519;-75
2022/01/07 08:03:20;;;;;;;0.10;0.10;;;;;;;6.28;72.98;99244.78;4970450;28;20034;-75
2022/01/07 08:05:46;;;;;;;0.32;0.32;;;;;;;6.34;72.62;99260.56;4970807;28;20069;-75
2022/01/07 08:08:11;;;;;;;0.05;0.05;;;;;;;6.33;73.19;99264.25;4971570;28;20058;-75
2022/01/07 08:10:44;;;;;;;0.35;0.35;;;;;;;6.32;72.94;99267.94;4970802;28;20042;-75
2022/01/07 08:18:24;;;;;;;0.45;0.45;;;;;;;6.26;73.69;99268.91;4971695;28;20041;-75
2022/01/07 08:20:53;;;;;;;0.00;0.00;;;;;;;6.32;73.46;99283.88;4970488;28;20027;-75
2022/01/07 08:23:19;;;;;;;0.30;0.30;;;;;;;6.35;74.20;99285.28;4971562;28;20061;-75
2022/01/07 08:25:45;;;;;;;0.13;0.13;;;;;;;6.34;74.03;99283.66;4970565;28;20632;-75
2022/01/07 08:28:12;;;;;;;0.47;0.40;;;;;;;6.33;73.67;99282.84;4969773;28;20023;-75
2022/01/07 08:30:59;;;;;;;0.13;0.13;;;;;;;6.36;73.36;99281.56;4971669;28;20054;-75
2022/01/07 08:36:12;;;;;;;0.00;0.00;;;;;;;6.41;74.03;99285.09;4971458;28;20092;-75
2022/01/07 08:38:38;;;;;;;0.50;0.50;;;;;;;6.46;73.94;99280.91;4970576;28;20109;-75
2022/01/07 08:41:03;;;;;;;0.10;0.10;;;;;;;6.47;73.83;99279.84;4971721;28;20069;-75
2022/01/07 08:43:29;;;;;;;0.25;0.25;;;;;;;6.45;73.34;99274.00;4970093;28;20031;-75
2022/01/07 08:45:54;;;;;;;0.00;0.00;;;;;;;6.41;73.02;99268.38;4971256;28;20516;-75
2022/01/07 08:48:20;;;;;;;0.00;0.00;;;;;;;6.41;73.35;99266.50;4971380;28;20476;-75
2022/01/07 08:50:45;;;;;;;0.30;0.30;;;;;;;6.46;73.82;99278.25;4970219;28;20050;-74
2022/01/07 08:53:11;;;;;;;0.00;0.00;;;;;;;6.45;73.79;99271.34;4971609;28;20042;-77
2022/01/07 08:55:37;;;;;;;0.15;0.15;;;;;;;6.39;73.15;99255.31;4970105;28;20121;-76
2022/01/07 08:58:03;;;;;;;0.20;0.20;;;;;;;6.44;73.58;99277.69;4971308;28;20059;-75
2022/01/07 09:00:33;;;;;;;0.75;0.75;;;;;;;6.40;73.65;99270.22;4969353;28;20047;-75
2022/01/07 09:03:00;;;;;;;0.00;0.00;;;;;;;6.39;73.88;99257.97;4970103;28;20023;-75
2022/01/07 09:05:26;;;;;;;0.30;0.30;;;;;;;6.39;73.93;99257.16;4969679;28;20038;-76
2022/01/07 09:07:51;;;;;;;2.45;1.95;;;;;;;6.42;73.37;99259.34;4971334;28;20031;-76
2022/01/07 09:10:17;;;;;;;0.10;0.10;;;;;;;6.36;73.39;99247.03;4970843;28;20034;-75
2022/01/07 09:12:42;;;;;;;0.13;0.13;;;;;;;6.49;73.84;99264.50;4970940;28;20038;-76
2022/01/07 09:15:08;;;;;;;0.10;0.10;;;;;;;6.50;73.59;99263.44;4971106;28;20030;-76
2022/01/07 09:17:35;;;;;;;0.17;0.17;;;;;;;6.52;73.60;99261.34;4970877;28;20113;-75
2022/01/07 09:20:01;;;;;;;1.15;0.52;;;;;;;6.48;73.95;99250.41;4969834;28;20577;-74
2022/01/07 09:22:26;;;;;;;0.00;0.00;;;;;;;6.55;73.52;99255.53;4969345;28;20245;-75
2022/01/07 09:24:52;;;;;;;0.10;0.10;;;;;;;6.55;72.78;99253.69;4969652;28;20425;-76
2022/01/07 09:27:17;;;;;;;0.35;0.35;;;;;;;6.60;72.66;99252.16;4969338;28;20018;-75
2022/01/07 09:29:43;;;;;;;0.00;0.00;;;;;;;6.62;72.80;99252.72;4969495;28;20049;-75
2022/01/07 09:32:08;;;;;;;0.10;0.10;;;;;;;6.67;72.05;99258.09;4969614;28;20169;-75
2022/01/07 09:34:35;;;;;;;0.10;0.10;;;;;;;6.69;72.13;99253.34;4970578;28;20474;-75
2022/01/07 09:37:02;;;;;;;0.38;0.38;;;;;;;6.67;71.80;99248.25;4971014;28;20023;-75
2022/01/07 09:39:27;;;;;;;0.40;0.40;;;;;;;6.77;71.79;99250.25;4969020;28;20119;-76
2022/01/07 09:41:52;;;;;;;0.00;0.00;;;;;;;6.87;71.42;99250.41;4968340;28;20549;-76
2022/01/07 09:44:18;;;;;;;0.47;0.43;;;;;;;6.94;70.76;99258.19;4969122;28;20059;-76
2022/01/07 09:46:44;;;;;;;0.00;0.00;;;;;;;6.98;70.11;99248.69;4969248;28;20126;-76
2022/01/07 09:49:09;;;;;;;0.10;0.10;;;;;;;6.92;70.27;99233.72;4969209;28;20038;-76
2022/01/07 09:51:40;;;;;;;0.00;0.00;;;;;;;7.02;70.04;99228.50;4970316;28;20133;-76
2022/01/07 09:54:07;;;;;;;0.22;0.22;;;;;;;7.15;69.80;99242.47;4968838;28;20084;-75
2022/01/07 09:56:32;;;;;;;0.98;0.70;;;;;;;7.11;70.38;99230.75;4968699;28;20509;-75
2022/01/07 09:58:58;;;;;;;0.10;0.10;;;;;;;7.13;69.99;99231.28;4970228;28;20607;-76
2022/01/07 10:01:25;;;;;;;0.65;0.65;;;;;;;7.22;70.35;99238.56;4968699;28;20096;-75
2022/01/07 10:03:51;;;;;;;0.00;0.00;;;;;;;7.14;69.37;99222.25;4969111;28;20101;-75
2022/01/07 10:06:27;;;;;;;0.05;0.05;;;;;;;7.25;69.19;99239.97;4968806;28;20031;-75
2022/01/07 10:09:10;;;;;;;0.00;0.00;;;;;;;7.29;69.74;99248.25;4969117;28;20030;-75
2022/01/07 10:11:36;;;;;;;0.95;0.43;;;;;;;7.32;69.09;99242.41;4969994;28;20034;-75
2022/01/07 10:14:22;;;;;;;1.38;0.57;;;;;;;7.36;69.15;99249.66;4968869;28;20398;-77
2022/01/07 10:16:51;;;;;;;0.20;0.20;;;;;;;7.39;69.14;99244.91;4968926;28;20421;-75
2022/01/07 10:19:33;;;;;;;0.35;0.35;;;;;;;7.35;68.94;99253.38;4968609;28;20656;-76
2022/01/07 10:22:11;;;;;;;1.67;1.05;;;;;;;7.34;68.93;99250.97;4970058;28;20084;-75
2022/01/07 10:24:53;;;;;;;0.00;0.00;;;;;;;7.28;69.49;99244.75;4968518;28;20035;-75
2022/01/07 10:27:19;;;;;;;0.20;0.20;;;;;;;7.31;68.91;99248.78;4969582;28;20031;-75
2022/01/07 10:29:44;;;;;;;0.00;0.00;;;;;;;7.30;69.94;99250.66;4968671;28;20045;-75
2022/01/07 10:32:25;;;;;;;0.45;0.45;;;;;;;7.28;70.01;99246.63;4968668;28;20031;-76
2022/01/07 10:35:07;;;;;;;0.30;0.30;;;;;;;7.13;70.69;99226.78;4968873;28;20375;-76
2022/01/07 10:37:44;;;;;;;0.00;0.00;;;;;;;7.19;70.44;99238.28;4969955;28;20038;-76
2022/01/07 10:40:37;;;;;;;0.40;0.40;;;;;;;7.20;70.95;99235.38;4968603;28;20050;-76
2022/01/07 10:43:11;;;;;;;0.40;0.40;;;;;;;7.19;70.81;99227.66;4968506;28;20026;-75
2022/01/07 10:45:38;;;;;;;0.38;0.38;;;;;;;7.20;71.25;99229.25;4968227;28;20031;-75
2022/01/07 10:48:06;;;;;;;0.30;0.30;;;;;;;7.19;70.76;99225.78;4968584;28;20129;-75
2022/01/07 10:50:36;;;;;;;0.00;0.00;;;;;;;7.25;70.47;99228.50;4968150;28;20119;-77
2022/01/07 10:53:24;;;;;;;0.22;0.22;;;;;;;7.31;70.88;99224.84;4967972;28;20061;-77
2022/01/07 10:56:11;;;;;;;0.00;0.00;;;;;;;7.33;69.99;99228.06;4964402;28;20070;-77
2022/01/07 10:58:42;;;;;;;0.50;0.32;;;;;;;7.34;71.08;99225.13;4969202;28;20043;-77
2022/01/07 11:01:24;;;;;;;0.65;0.20;;;;;;;7.32;70.28;99218.47;4968144;28;20055;-76
2022/01/07 11:03:53;;;;;;;0.00;0.00;;;;;;;7.35;70.37;99210.00;4968071;28;20153;-76
2022/01/07 11:06:20;;;;;;;0.10;0.10;;;;;;;7.32;70.27;99211.31;4968062;28;20047;-75
2022/01/07 11:08:51;;;;;;;0.00;0.00;;;;;;;7.31;70.72;99219.50;4968122;28;20031;-77
2022/01/07 11:11:18;;;;;;;0.10;0.10;;;;;;;7.32;70.10;99224.59;4968099;28;20114;-77
2022/01/07 11:13:44;;;;;;;0.43;0.43;;;;;;;7.27;70.89;99227.19;4969745;28;20058;-77
2022/01/07 11:16:10;;;;;;;0.13;0.13;;;;;;;7.26;70.72;99220.25;4969322;28;20077;-77
2022/01/07 11:18:43;;;;;;;1.20;0.73;;;;;;;7.29;70.58;99240.25;4969367;28;20034;-76
2022/01/07 11:21:09;;;;;;;0.15;0.15;;;;;;;7.10;70.48;99208.66;4967917;28;20030;-76
2022/01/07 11:23:41;;;;;;;0.20;0.20;;;;;;;7.22;71.37;99233.25;4968591;28;20106;-75
2022/01/07 11:26:09;;;;;;;0.15;0.15;;;;;;;7.25;71.65;99229.31;4967658;28;20038;-76
2022/01/07 11:28:35;;;;;;;0.00;0.00;;;;;;;7.29;71.28;99226.97;4967635;28;20026;-76
2022/01/07 11:31:13;;;;;;;1.23;1.13;;;;;;;7.30;71.05;99220.56;4967787;28;20039;-75
2022/01/07 11:33:39;;;;;;;0.10;0.10;;;;;;;7.31;70.76;99220.34;4969143;28;20031;-75
2022/01/07 11:36:09;;;;;;;0.30;0.30;;;;;;;7.22;70.90;99209.31;4967903;28;20425;-76
2022/01/07 11:38:40;;;;;;;0.45;0.45;;;;;;;7.33;71.16;99222.75;4968505;28;20064;-75
2022/01/07 11:41:09;;;;;;;0.32;0.32;;;;;;;7.30;71.07;99228.53;4967598;28;20041;-75
2022/01/07 11:43:41;;;;;;;0.05;0.05;;;;;;;7.10;70.81;99207.84;4968812;28;20031;-76
2022/01/07 11:46:25;;;;;;;0.25;0.25;;;;;;;7.16;71.77;99225.47;4967699;28;20383;-75
2022/01/07 11:48:51;;;;;;;1.27;0.90;;;;;;;7.24;72.06;99245.50;4968930;28;20031;-76
2022/01/07 11:51:17;;;;;;;0.32;0.32;;;;;;;7.21;72.33;99231.66;4967627;28;20039;-76